Terminal Aerodrome Forecast
Issued by NWS

Home | Current Version | Previous Version | Text Only | Print | Product List | Glossary On
Versions: 1 2 3 4 5 6 7 8 9 10 11 12 13 14 15 16 17
000
FTUS43 KGRR 241124
TAFLAN
TAF
KLAN 241124Z 2412/2512 06006KT P6SM FEW070 BKN110 BKN160
     FM241500 06009KT P6SM VCSH BKN060 BKN120
     FM241800 07009KT 6SM -SHRA VCTS BKN070CB
     FM242300 05009KT P6SM VCTS OVC045CB
     FM250300 05009KT 4SM -SHRA OVC025
     FM250600 04010G18KT P6SM OVC015=

USA.gov is the U.S. government's official web portal to all federal, state and local government web resources and services.